Provo, UT (84603)

11:39 PM MST on February 13, 2016 (GMT -0700)
Grandview near Westridge Elementary School | | Change Station
CLOSE
Current Station
Personal Weather Station
Location: Provo, UT
Elevation: 4678 ft
Nearby Weather Stations

Elev 4678 ft 40.26 °N, 111.68 °W | Updated 2 seconds ago

Mostly Cloudy
Mostly Cloudy
25.5 °F
Feels Like 26 °F
N
0.0
Wind Variable Wind from WSW
Gusts 0.0 mph

Today
High -- | Low -- °F
--% Chance of Precip.
Yesterday
High -- | Low -- °F
Precip. -- in
Pressure 30.31 in
Visibility 0.8 miles
Clouds Overcast 100 ft
Windchill 26 °F
Dew Point 20 °F
Humidity 80%
Rainfall 0.00 in
Snow Depth Not available.
7:23 AM 5:59 PM
Waxing Crescent, 38% visible
METAR KU42 140615Z AUTO 16005KT 3/4SM OVC001 M02/M02 A3031 RMK AO1 T10221022
Pressure 30.31 in
Visibility 0.8 miles
Clouds Overcast 100 ft
Windchill 26 °F
Dew Point 20 °F
Humidity 80%
Rainfall 0.00 in
Snow Depth Not available.
7:23 AM 5:59 PM
Waxing Crescent, 38% visible
METAR KU42 140615Z AUTO 16005KT 3/4SM OVC001 M02/M02 A3031 RMK AO1 T10221022

10-Day Weather Forecast

Almanac

Astronomy

Feb. 13, 2016 Rise Set
Actual Time
Civil Twilight
Nautical Twilight
Astronomical Twilight
Moon
Length of Visible Light
Length of Day
Tomorrow will be .
, % of the Moon is Illuminated

Today's Extremes

State Highs State Lows

Community

WunderPhotos

Upload Photos

1,892,757 photos uploaded!

WunderBlog® & News

Nearby

Air Quality

  Air Quality AQ Index Pollutant
Not available.

Snow Depth

Station Depth Elevation

Earthquake Activity

City Distance Mag. Time & Date
Minimum magnitude displayed is 2.5.

Coastal Water Temperatures

Place Temperature

Stations

Nearby Weather Stations

Station Location Temp. Windchill Dew Point Humidity Wind Precip. Elev Updated Type
                   

Watches & Warnings

There are currently no watches in effect.